Time;durP1;ratioP1;P1;durP2;ratioP2;P2;SDS_P1;SDS_P2;PMS_P1;PMS_P2;Temp;Humidity;BMP_temperature;BMP_pressure;BME280_temperature;BME280_humidity;BME280_pressure;Samples;Min_cycle;Max_cycle;Signal;HPM_P1;HPM_P2
2022/10/14 00:01:09;;;;;;;;;12.67;12.33;;;;;17.01;100.00;101052.06;5081870;28;45500;-77
2022/10/14 00:03:36;;;;;;;;;14.33;14.33;;;;;16.98;100.00;101044.41;5081349;27;45383;-76
2022/10/14 00:06:09;;;;;;;;;13.00;12.00;;;;;17.02;100.00;101047.50;5081309;27;45440;-76
2022/10/14 00:08:35;;;;;;;;;10.33;10.33;;;;;16.95;100.00;101039.47;5081332;27;45224;-76
2022/10/14 00:11:10;;;;;;;;;12.33;12.33;;;;;17.02;100.00;101047.50;5081496;27;45456;-77
2022/10/14 00:13:35;;;;;;;;;12.33;11.67;;;;;17.00;100.00;101050.38;5113955;27;47358;-76
2022/10/14 00:16:02;;;;;;;;;11.00;11.00;;;;;16.97;100.00;101048.13;5114271;27;48238;-77
2022/10/14 00:18:28;;;;;;;;;11.00;9.67;;;;;16.92;100.00;101037.19;5081333;27;45357;-77
2022/10/14 00:20:57;;;;;;;;;9.00;9.00;;;;;17.00;100.00;101039.66;5081385;27;45397;-75
2022/10/14 00:23:23;;;;;;;;;10.33;10.33;;;;;17.02;100.00;101045.63;5079934;28;46544;-76
2022/10/14 00:25:49;;;;;;;;;9.67;8.67;;;;;16.99;100.00;101037.16;5081013;27;45269;-77
2022/10/14 00:28:14;;;;;;;;;8.33;8.33;;;;;17.05;100.00;101044.38;5081097;27;45275;-77
2022/10/14 00:30:39;;;;;;;;;6.33;6.00;;;;;17.05;100.00;101036.34;5081346;27;45287;-76
2022/10/14 00:33:05;;;;;;;;;8.33;7.00;;;;;17.00;100.00;101036.16;5079744;27;46037;-76
2022/10/14 00:35:31;;;;;;;;;7.33;7.33;;;;;16.99;100.00;101029.13;5081192;27;45354;-76
2022/10/14 00:37:57;;;;;;;;;6.33;6.00;;;;;17.04;100.00;101038.19;5080963;27;45345;-76
2022/10/14 00:40:23;;;;;;;;;11.33;10.00;;;;;17.00;100.00;101030.78;5081117;27;45384;-76
2022/10/14 00:42:49;;;;;;;;;6.33;6.33;;;;;17.07;100.00;101038.84;5080471;28;45393;-76
2022/10/14 00:45:20;;;;;;;;;7.33;7.33;;;;;17.08;100.00;101029.75;5080924;27;45857;-76
2022/10/14 00:47:49;;;;;;;;;7.33;7.33;;;;;16.98;100.00;101016.72;5080542;28;45470;-76
2022/10/14 00:50:15;;;;;;;;;6.00;6.00;;;;;17.04;100.00;101018.56;5081101;27;45491;-76
2022/10/14 00:52:42;;;;;;;;;8.00;7.67;;;;;16.99;100.00;101013.84;5096338;27;47210;-77
2022/10/14 00:55:13;;;;;;;;;5.00;5.00;;;;;16.98;100.00;101006.84;5080802;27;45333;-77
2022/10/14 00:57:38;;;;;;;;;5.00;5.00;;;;;16.98;100.00;100987.19;5080664;27;45453;-77
2022/10/14 01:00:09;;;;;;;;;6.33;6.33;;;;;17.01;100.00;100993.00;5080678;27;45307;-77
2022/10/14 01:02:35;;;;;;;;;5.33;5.33;;;;;17.01;100.00;101003.72;5080767;27;45228;-77
2022/10/14 01:05:03;;;;;;;;;4.33;3.67;;;;;17.00;100.00;100987.81;5078956;28;47528;-77
2022/10/14 01:07:58;;;;;;;;;5.67;4.00;;;;;17.04;100.00;100995.22;5112631;27;45556;-77
2022/10/14 01:10:28;;;;;;;;;5.00;5.00;;;;;17.07;100.00;100991.34;5071341;28;45718;-77
2022/10/14 01:13:10;;;;;;;;;6.00;5.00;;;;;17.06;100.00;100981.59;5080098;27;45255;-77
2022/10/14 01:15:47;;;;;;;;;4.67;4.67;;;;;17.01;100.00;100970.66;5079109;27;47518;-77
2022/10/14 01:18:50;;;;;;;;;2.33;2.33;;;;;17.10;100.00;100973.97;5080313;27;45342;-77
2022/10/14 01:21:25;;;;;;;;;3.00;3.00;;;;;17.08;100.00;100976.88;5059080;28;45390;-77
2022/10/14 01:24:04;;;;;;;;;4.00;4.00;;;;;17.08;100.00;100971.50;5074803;28;45302;-77
2022/10/14 01:26:57;;;;;;;;;6.00;5.00;;;;;17.07;100.00;100971.72;5080193;28;45901;-77
2022/10/14 01:29:44;;;;;;;;;2.67;2.67;;;;;17.08;100.00;100973.34;5080011;28;45475;-76
2022/10/14 01:32:27;;;;;;;;;4.00;4.00;;;;;16.98;100.00;100958.50;5095910;27;45455;-77
2022/10/14 01:35:09;;;;;;;;;4.00;4.00;;;;;16.99;100.00;100951.25;5067699;28;45300;-76
2022/10/14 01:37:42;;;;;;;;;5.00;5.00;;;;;17.04;100.00;100962.19;5079958;27;46530;-76
2022/10/14 01:40:18;;;;;;;;;5.67;4.67;;;;;17.03;100.00;100961.38;5112843;27;45309;-77
2022/10/14 01:42:46;;;;;;;;;4.00;4.00;;;;;17.04;100.00;100954.94;5079951;27;45317;-77
2022/10/14 01:45:18;;;;;;;;;4.33;3.00;;;;;17.03;100.00;100955.19;5080057;27;45380;-76
2022/10/14 01:47:47;;;;;;;;;7.00;5.33;;;;;17.09;100.00;100961.59;5079630;27;45459;-77
2022/10/14 01:50:16;;;;;;;;;2.00;2.00;;;;;17.11;100.00;100957.66;5095710;27;45377;-77
2022/10/14 01:52:50;;;;;;;;;4.00;4.00;;;;;17.10;100.00;100952.50;5079916;27;45298;-76
2022/10/14 01:55:25;;;;;;;;;5.33;5.00;;;;;17.10;100.00;100944.44;5079968;27;45345;-77
2022/10/14 01:57:54;;;;;;;;;3.00;3.00;;;;;17.09;100.00;100932.06;5079511;27;46861;-77
2022/10/14 02:00:20;;;;;;;;;3.00;3.00;;;;;17.07;100.00;100939.50;5112595;27;45918;-77
2022/10/14 02:02:45;;;;;;;;;2.00;2.00;;;;;17.01;100.00;100927.72;5095527;27;45393;-76
2022/10/14 02:05:27;;;;;;;;;4.00;4.00;;;;;17.10;100.00;100933.69;5079545;27;45350;-77
2022/10/14 02:08:03;;;;;;;;;2.33;2.33;;;;;17.13;100.00;100949.38;5079610;27;46129;-76
2022/10/14 02:10:59;;;;;;;;;3.67;3.67;;;;;17.14;100.00;100945.66;5078059;28;45664;-76
2022/10/14 02:13:39;;;;;;;;;3.00;3.00;;;;;17.05;100.00;100937.00;5112377;27;45384;-76
2022/10/14 02:16:22;;;;;;;;;5.00;5.00;;;;;17.09;100.00;100940.13;5079624;27;45221;-76
2022/10/14 02:19:02;;;;;;;;;3.00;3.00;;;;;17.08;100.00;100930.38;5078057;28;45496;-76
2022/10/14 02:21:30;;;;;;;;;4.67;4.67;;;;;17.12;100.00;100929.75;5079535;27;45277;-76
2022/10/14 02:24:06;;;;;;;;;3.00;3.00;;;;;16.97;100.00;100913.06;5079453;28;45379;-77
2022/10/14 02:26:33;;;;;;;;;4.00;3.33;;;;;17.07;100.00;100920.69;5079298;27;45467;-76
2022/10/14 02:29:01;;;;;;;;;3.67;3.00;;;;;17.06;100.00;100914.47;5079046;27;46090;-77
2022/10/14 02:31:28;;;;;;;;;3.00;3.00;;;;;17.12;100.00;100916.31;5079195;27;45231;-77
2022/10/14 02:33:58;;;;;;;;;4.00;4.00;;;;;17.06;100.00;100908.28;5112380;27;45378;-77
2022/10/14 02:36:26;;;;;;;;;4.00;4.00;;;;;17.11;100.00;100920.06;5079331;28;45325;-76
2022/10/14 02:38:54;;;;;;;;;4.00;4.00;;;;;17.03;100.00;100915.72;5079311;27;46047;-76
2022/10/14 02:41:23;;;;;;;;;4.33;4.33;;;;;17.00;100.00;100907.28;5079280;27;45808;-76
2022/10/14 02:43:49;;;;;;;;;4.33;4.00;;;;;17.11;100.00;100913.84;5079233;27;45333;-76
2022/10/14 02:46:18;;;;;;;;;3.00;3.00;;;;;16.97;100.00;100880.88;5078971;27;45290;-76
2022/10/14 02:48:43;;;;;;;;;4.00;4.00;;;;;17.10;100.00;100906.84;5094685;27;48214;-76
2022/10/14 02:51:09;;;;;;;;;4.00;4.00;;;;;17.01;100.00;100887.44;5078913;27;45381;-77
2022/10/14 02:53:34;;;;;;;;;7.00;5.00;;;;;17.11;100.00;100906.63;5079205;28;45463;-76
2022/10/14 02:55:59;;;;;;;;;5.00;4.67;;;;;17.07;100.00;100892.00;5078980;27;45297;-77
2022/10/14 02:58:25;;;;;;;;;4.00;4.00;;;;;17.04;100.00;100892.38;5078638;27;45459;-76
2022/10/14 03:00:50;;;;;;;;;6.33;4.67;;;;;17.10;100.00;100898.78;5078937;28;45322;-76
2022/10/14 03:03:15;;;;;;;;;5.00;5.00;;;;;17.15;100.00;100907.03;5078941;27;45360;-76
2022/10/14 03:05:41;;;;;;;;;4.00;4.00;;;;;17.16;100.00;100904.13;5094562;27;46173;-76
2022/10/14 03:08:07;;;;;;;;;4.00;4.00;;;;;17.12;100.00;100902.91;5078582;27;46442;-76
2022/10/14 03:10:32;;;;;;;;;6.67;6.67;;;;;17.10;100.00;100896.09;5078689;28;45355;-76
2022/10/14 03:12:57;;;;;;;;;5.33;5.33;;;;;17.13;100.00;100896.50;5078905;27;45283;-76
2022/10/14 03:15:22;;;;;;;;;8.33;6.00;;;;;17.12;100.00;100897.53;5076999;28;52960;-75
2022/10/14 03:17:48;;;;;;;;;5.00;4.33;;;;;17.12;100.00;100891.34;5078795;27;45256;-75
2022/10/14 03:20:14;;;;;;;;;7.00;6.67;;;;;17.07;100.00;100883.09;5078743;27;45300;-76
2022/10/14 03:22:39;;;;;;;;;6.67;6.67;;;;;17.18;100.00;100881.63;5077308;28;45252;-75
2022/10/14 03:25:05;;;;;;;;;6.00;6.00;;;;;17.17;100.00;100891.53;5078783;27;45195;-76
2022/10/14 03:27:31;;;;;;;;;6.00;5.00;;;;;17.20;100.00;100891.09;5078141;28;45234;-75
2022/10/14 03:29:56;;;;;;;;;5.00;5.00;;;;;17.12;100.00;100870.69;5079022;27;45328;-76
2022/10/14 03:32:21;;;;;;;;;5.00;5.00;;;;;17.20;100.00;100882.19;5082162;28;45228;-76
2022/10/14 03:34:47;;;;;;;;;5.67;5.67;;;;;17.25;100.00;100893.97;5082032;28;45320;-75
2022/10/14 03:37:12;;;;;;;;;4.00;4.00;;;;;17.14;100.00;100873.16;5081811;28;56602;-77
2022/10/14 03:39:37;;;;;;;;;5.00;4.00;;;;;17.15;100.00;100875.63;5081724;27;45223;-77
2022/10/14 03:42:03;;;;;;;;;3.00;3.00;;;;;17.24;100.00;100886.94;5082162;27;45305;-76
2022/10/14 03:44:28;;;;;;;;;4.67;4.67;;;;;17.23;100.00;100887.97;5081624;27;45386;-76
2022/10/14 03:46:53;;;;;;;;;5.00;5.00;;;;;17.26;100.00;100878.66;5081687;28;45413;-76
2022/10/14 03:49:18;;;;;;;;;6.00;5.00;;;;;17.29;100.00;100880.91;5081879;27;45326;-76
2022/10/14 03:51:44;;;;;;;;;5.00;5.00;;;;;17.30;100.00;100890.63;5080749;28;45288;-76
2022/10/14 03:54:09;;;;;;;;;5.67;4.00;;;;;17.31;100.00;100892.28;5081829;27;45347;-76
2022/10/14 03:56:35;;;;;;;;;6.33;5.33;;;;;17.31;100.00;100889.59;5079862;27;47550;-76
2022/10/14 03:59:00;;;;;;;;;9.00;9.00;;;;;17.22;100.00;100872.91;5081813;27;45393;-76
2022/10/14 04:01:25;;;;;;;;;7.67;7.00;;;;;17.33;100.00;100881.31;5080259;28;45543;-76
2022/10/14 04:03:51;;;;;;;;;13.33;10.33;;;;;17.25;100.00;100877.84;5081460;27;45465;-76
2022/10/14 04:06:16;;;;;;;;;8.67;8.67;;;;;17.23;100.00;100873.72;5081185;28;46051;-77
2022/10/14 04:08:42;;;;;;;;;11.67;11.67;;;;;17.22;100.00;100874.75;5081611;28;45361;-76
2022/10/14 04:11:07;;;;;;;;;12.67;11.67;;;;;17.12;100.00;100869.88;5081382;27;45350;-77
2022/10/14 04:13:33;;;;;;;;;10.00;10.00;;;;;17.16;100.00;100888.00;5079724;28;45560;-76
2022/10/14 04:16:06;;;;;;;;;13.00;13.00;;;;;17.09;100.00;100881.84;5081325;27;45279;-76
2022/10/14 04:18:33;;;;;;;;;13.67;12.33;;;;;17.16;100.00;100900.63;5081403;27;45483;-76
2022/10/14 04:21:04;;;;;;;;;10.67;10.67;;;;;17.09;100.00;100881.84;5081348;27;45318;-76
2022/10/14 04:23:30;;;;;;;;;12.33;12.33;;;;;17.16;100.00;100890.69;5081297;27;46515;-75
2022/10/14 04:25:55;;;;;;;;;11.33;11.00;;;;;17.09;100.00;100883.72;5080786;28;45548;-75
2022/10/14 04:28:20;;;;;;;;;11.33;11.33;;;;;17.10;100.00;100885.38;5096828;27;45457;-75
2022/10/14 04:30:46;;;;;;;;;14.67;12.67;;;;;17.17;100.00;100902.25;5081265;27;45431;-76
2022/10/14 04:33:11;;;;;;;;;12.67;11.00;;;;;17.16;100.00;100895.25;5081206;27;45296;-76
2022/10/14 04:35:37;;;;;;;;;13.33;12.33;;;;;17.07;100.00;100869.69;5079736;28;48302;-76
2022/10/14 04:38:02;;;;;;;;;14.33;12.67;;;;;17.20;100.00;100885.72;5081037;27;45286;-76
2022/10/14 04:40:27;;;;;;;;;15.33;15.33;;;;;17.20;100.00;100872.28;5080015;27;45324;-76
2022/10/14 04:42:57;;;;;;;;;11.00;10.67;;;;;17.16;100.00;100866.53;5079328;28;53388;-76
2022/10/14 04:45:24;;;;;;;;;9.33;9.00;;;;;17.16;100.00;100860.34;5080997;28;45459;-76
2022/10/14 04:47:50;;;;;;;;;8.00;8.00;;;;;17.20;100.00;100866.09;5079248;28;45377;-76
2022/10/14 04:50:16;;;;;;;;;10.00;9.00;;;;;17.20;100.00;100874.97;5081165;27;45332;-76
2022/10/14 04:52:41;;;;;;;;;11.00;9.67;;;;;17.01;100.00;100844.50;5080617;27;45466;-75
2022/10/14 04:55:07;;;;;;;;;10.67;10.33;;;;;17.16;100.00;100863.03;5080823;27;46103;-76
2022/10/14 04:57:32;;;;;;;;;9.00;8.67;;;;;17.25;100.00;100874.34;5080541;27;45460;-76
2022/10/14 04:59:58;;;;;;;;;10.00;10.00;;;;;17.20;100.00;100871.47;5080868;27;45360;-76
2022/10/14 05:02:23;;;;;;;;;14.33;12.33;;;;;17.25;100.00;100866.28;5096312;27;48346;-76
2022/10/14 05:04:49;;;;;;;;;12.00;10.00;;;;;17.20;100.00;100855.34;5080306;27;45410;-76
2022/10/14 05:07:14;;;;;;;;;8.67;7.00;;;;;17.20;100.00;100858.88;5080442;27;45242;-76
2022/10/14 05:09:39;;;;;;;;;8.00;8.00;;;;;17.23;100.00;100874.56;5080754;27;45268;-76
2022/10/14 05:12:05;;;;;;;;;7.00;7.00;;;;;17.19;100.00;100861.78;5079957;28;45544;-76
2022/10/14 05:14:30;;;;;;;;;8.33;8.33;;;;;17.21;100.00;100865.06;5108676;27;47222;-76
2022/10/14 05:16:55;;;;;;;;;8.33;8.33;;;;;17.20;100.00;100858.88;5076469;27;47210;-76
2022/10/14 05:19:21;;;;;;;;;10.33;10.00;;;;;17.21;100.00;100860.50;5065647;27;45503;-76
2022/10/14 05:21:46;;;;;;;;;9.00;9.00;;;;;17.23;100.00;100855.75;5090430;27;45325;-76
2022/10/14 05:24:11;;;;;;;;;10.33;10.33;;;;;17.23;100.00;100852.22;5080472;27;45438;-76
2022/10/14 05:26:37;;;;;;;;;8.33;7.67;;;;;17.20;100.00;100848.13;5080024;28;45323;-77
2022/10/14 05:29:03;;;;;;;;;9.33;8.67;;;;;17.26;100.00;100849.94;5079371;27;45329;-77
2022/10/14 05:31:28;;;;;;;;;8.00;7.33;;;;;17.16;100.00;100830.81;5073160;28;45406;-76
2022/10/14 05:33:53;;;;;;;;;7.67;7.00;;;;;17.25;100.00;100851.00;5081858;27;46171;-77
2022/10/14 05:36:19;;;;;;;;;8.67;8.67;;;;;17.21;100.00;100847.06;5096533;27;45408;-77
2022/10/14 05:38:44;;;;;;;;;8.33;8.00;;;;;17.18;100.00;100838.66;5081460;28;45288;-78
2022/10/14 05:41:09;;;;;;;;;8.00;8.00;;;;;17.16;100.00;100839.66;5078811;27;46375;-76
2022/10/14 05:43:35;;;;;;;;;7.00;7.00;;;;;17.18;100.00;100842.13;5080484;27;46199;-77
2022/10/14 05:46:00;;;;;;;;;8.33;6.67;;;;;17.22;100.00;100848.75;5080993;27;49541;-77
2022/10/14 05:48:25;;;;;;;;;7.00;7.00;;;;;17.16;100.00;100838.88;5080543;27;45286;-77
2022/10/14 05:50:51;;;;;;;;;9.00;8.67;;;;;17.18;100.00;100850.19;5082723;27;45495;-77
2022/10/14 05:53:16;;;;;;;;;7.33;7.33;;;;;17.18;100.00;100847.50;5089166;27;47191;-77
2022/10/14 05:55:41;;;;;;;;;7.67;7.67;;;;;17.03;100.00;100832.50;5089640;27;46512;-77
2022/10/14 05:58:07;;;;;;;;;7.00;7.00;;;;;17.16;100.00;100853.09;5075074;27;45396;-77
2022/10/14 06:00:33;;;;;;;;;6.33;5.00;;;;;17.14;100.00;100852.50;5086545;27;45321;-77
2022/10/14 06:02:58;;;;;;;;;9.33;7.00;;;;;17.10;100.00;100842.41;5091047;27;45615;-76
2022/10/14 06:05:24;;;;;;;;;8.67;8.67;;;;;17.09;100.00;100852.31;5078387;28;45809;-77
2022/10/14 06:07:49;;;;;;;;;6.33;6.33;;;;;17.04;100.00;100844.06;5083257;27;45395;-77
2022/10/14 06:10:15;;;;;;;;;7.67;6.67;;;;;16.98;100.00;100839.53;5077557;27;45954;-77
2022/10/14 06:12:40;;;;;;;;;9.00;9.00;;;;;17.04;100.00;100849.44;5113353;27;47364;-76
2022/10/14 06:15:06;;;;;;;;;6.67;6.67;;;;;16.96;100.00;100849.66;5087850;27;45327;-77
2022/10/14 06:17:31;;;;;;;;;6.33;5.33;;;;;16.89;100.00;100841.66;5080698;27;45424;-76
2022/10/14 06:19:57;;;;;;;;;7.33;6.00;;;;;17.02;100.00;100862.25;5095529;27;46128;-76
2022/10/14 06:22:22;;;;;;;;;4.33;4.33;;;;;16.99;100.00;100870.72;5095376;27;48087;-76
2022/10/14 06:24:47;;;;;;;;;6.00;6.00;;;;;16.98;100.00;100871.75;5079725;27;45337;-76
2022/10/14 06:27:13;;;;;;;;;4.33;4.33;;;;;16.88;100.00;100850.75;5079632;27;45334;-76
2022/10/14 06:29:38;;;;;;;;;5.33;5.33;;;;;16.82;100.00;100830.94;5082026;27;45326;-76
2022/10/14 06:32:04;;;;;;;;;5.00;5.00;;;;;16.98;100.00;100867.22;5097026;27;46169;-76
2022/10/14 06:34:29;;;;;;;;;8.00;7.67;;;;;16.97;100.00;100862.88;5077872;28;45362;-75
2022/10/14 06:36:55;;;;;;;;;4.33;4.33;;;;;16.96;100.00;100860.41;5079436;27;45248;-77
2022/10/14 06:39:20;;;;;;;;;5.00;5.00;;;;;16.95;100.00;100870.34;5079235;27;45421;-75
2022/10/14 06:41:46;;;;;;;;;6.33;6.33;;;;;16.95;100.00;100867.66;5079051;27;45312;-74
2022/10/14 06:44:12;;;;;;;;;6.00;6.00;;;;;16.87;100.00;100860.66;5079284;27;45419;-75
2022/10/14 06:46:37;;;;;;;;;7.67;7.67;;;;;16.92;100.00;100870.75;5079188;27;45333;-74
2022/10/14 06:49:03;;;;;;;;;6.33;6.33;;;;;16.88;100.00;100866.88;5094755;27;46217;-75
2022/10/14 06:51:28;;;;;;;;;8.33;8.33;;;;;16.82;100.00;100856.97;5078967;27;45246;-75
2022/10/14 06:53:53;;;;;;;;;9.67;8.00;;;;;16.96;100.00;100868.47;5077728;28;46388;-75
2022/10/14 06:56:19;;;;;;;;;9.33;8.67;;;;;16.91;100.00;100861.03;5079286;27;45240;-75
2022/10/14 06:58:44;;;;;;;;;9.33;7.00;;;;;16.89;100.00;100850.56;5077468;28;45864;-75
2022/10/14 07:01:09;;;;;;;;;8.33;8.33;;;;;17.00;100.00;100851.72;5094469;27;45625;-75
2022/10/14 07:03:37;;;;;;;;;5.00;5.00;;;;;17.06;100.00;100866.13;5079712;27;45639;-76
2022/10/14 07:06:05;;;;;;;;;8.00;8.00;;;;;16.98;100.00;100851.13;5078009;27;45397;-75
2022/10/14 07:08:31;;;;;;;;;8.67;8.67;;;;;17.05;100.00;100861.81;5080377;27;45486;-75
2022/10/14 07:10:56;;;;;;;;;7.00;7.00;;;;;17.19;100.00;100873.34;5081476;27;45430;-76
2022/10/14 07:13:21;;;;;;;;;8.67;8.00;;;;;17.18;100.00;100873.56;5081747;27;45373;-75
2022/10/14 07:15:49;;;;;;;;;13.33;11.33;;;;;17.16;100.00;100863.03;5082403;27;45370;-75
2022/10/14 07:18:15;;;;;;;;;7.00;7.00;;;;;17.22;100.00;100874.75;5096908;27;47125;-75
2022/10/14 07:20:40;;;;;;;;;9.67;9.00;;;;;17.18;100.00;100871.69;5080187;28;48340;-75
2022/10/14 07:23:05;;;;;;;;;10.67;9.67;;;;;17.29;100.00;100895.19;5083395;27;45321;-74
2022/10/14 07:25:31;;;;;;;;;10.00;10.00;;;;;17.25;100.00;100880.53;5083282;27;45394;-75
2022/10/14 07:27:57;;;;;;;;;10.67;10.00;;;;;17.28;100.00;100890.84;5081367;27;45286;-75
2022/10/14 07:30:22;;;;;;;;;8.33;8.33;;;;;17.26;100.00;100884.03;5080595;27;46127;-75
2022/10/14 07:32:48;;;;;;;;;9.33;8.67;;;;;17.29;100.00;100892.50;5077770;28;45622;-75
2022/10/14 07:35:13;;;;;;;;;9.67;9.67;;;;;17.29;100.00;100897.03;5081392;27;45591;-76
2022/10/14 07:37:39;;;;;;;;;9.00;9.00;;;;;17.27;100.00;100899.94;5080426;28;45750;-75
2022/10/14 07:40:05;;;;;;;;;7.33;7.33;;;;;17.32;100.00;100903.84;5081569;27;46152;-76
2022/10/14 07:42:30;;;;;;;;;9.33;9.33;;;;;17.32;100.00;100906.50;5081875;28;45339;-75
2022/10/14 07:44:56;;;;;;;;;10.67;10.67;;;;;17.36;100.00;100916.63;5081854;27;45440;-75
2022/10/14 07:47:22;;;;;;;;;9.00;9.00;;;;;17.33;100.00;100909.00;5080939;27;45405;-75
2022/10/14 07:49:48;;;;;;;;;11.00;11.00;;;;;17.39;100.00;100912.69;5079168;27;45501;-75
2022/10/14 07:52:14;;;;;;;;;7.00;6.00;;;;;17.44;100.00;100918.22;5080152;27;45630;-76
2022/10/14 07:54:40;;;;;;;;;8.33;8.33;;;;;17.54;100.00;100915.88;5081413;27;45300;-76
2022/10/14 07:57:05;;;;;;;;;7.00;7.00;;;;;17.58;100.00;100915.47;5080507;27;45388;-75
2022/10/14 07:59:30;;;;;;;;;7.00;7.00;;;;;17.64;100.00;100923.50;5079995;28;48362;-74
2022/10/14 08:01:56;;;;;;;;;8.33;7.33;;;;;17.62;100.00;100911.28;5081160;28;52041;-75
2022/10/14 08:04:22;;;;;;;;;6.33;6.33;;;;;17.54;100.00;100910.53;5082952;28;45231;-76
2022/10/14 08:06:48;;;;;;;;;10.00;10.00;;;;;17.62;100.00;100917.50;5082839;27;45338;-76
2022/10/14 08:09:14;;;;;;;;;10.33;10.33;;;;;17.62;100.00;100919.34;5111041;27;47137;-75
2022/10/14 08:11:39;;;;;;;;;12.33;10.67;;;;;17.52;100.00;100915.31;5063390;28;46063;-76
2022/10/14 08:14:06;;;;;;;;;8.00;8.00;;;;;17.53;100.00;100919.63;5078031;28;45326;-75
2022/10/14 08:16:33;;;;;;;;;7.67;7.67;;;;;17.50;100.00;100924.59;5080998;28;45990;-76
2022/10/14 08:19:03;;;;;;;;;6.67;6.00;;;;;17.45;100.00;100925.25;5073766;27;45303;-76
2022/10/14 08:21:28;;;;;;;;;7.67;7.67;;;;;17.41;100.00;100935.63;5070467;28;45492;-74
2022/10/14 08:23:54;;;;;;;;;7.67;7.67;;;;;17.37;100.00;100947.84;5099516;27;45403;-75
2022/10/14 08:26:34;;;;;;;;;5.00;5.00;;;;;17.24;100.00;100948.69;5075431;27;45374;-76
2022/10/14 08:29:04;;;;;;;;;5.33;5.00;;;;;17.25;100.00;100957.59;5070167;28;48345;-77
2022/10/14 08:31:31;;;;;;;;;4.33;4.33;;;;;17.21;100.00;100956.38;5074100;27;45514;-75
2022/10/14 08:33:56;;;;;;;;;4.67;4.00;;;;;17.14;100.00;100959.09;5073018;27;45608;-75
2022/10/14 08:36:22;;;;;;;;;3.00;3.00;;;;;17.08;100.00;100957.25;5080920;27;45360;-77
2022/10/14 08:38:49;;;;;;;;;3.00;2.67;;;;;17.09;100.00;100950.84;5079386;28;47886;-75
2022/10/14 08:41:25;;;;;;;;;4.00;4.00;;;;;17.02;100.00;100943.63;5081076;27;45402;-76
2022/10/14 08:44:05;;;;;;;;;3.00;3.00;;;;;17.14;100.00;100951.03;5099702;27;45291;-76
2022/10/14 08:46:46;;;;;;;;;3.00;3.00;;;;;17.13;100.00;100952.91;5080494;28;45452;-75
2022/10/14 08:49:21;;;;;;;;;3.33;3.33;;;;;17.14;100.00;100959.91;5080782;27;46659;-76
2022/10/14 08:51:54;;;;;;;;;6.33;6.33;;;;;17.08;100.00;100947.34;5080682;27;45417;-76
2022/10/14 08:54:43;;;;;;;;;7.00;6.00;;;;;17.12;100.00;100950.44;5080968;27;45377;-77
2022/10/14 08:57:16;;;;;;;;;8.33;7.00;;;;;17.11;100.00;100940.72;5073599;27;45553;-76
2022/10/14 08:59:43;;;;;;;;;5.00;5.00;;;;;17.13;100.00;100939.47;5113594;27;47483;-76
2022/10/14 09:02:28;;;;;;;;;2.33;2.33;;;;;17.20;100.00;100936.75;5113244;27;45467;-76
2022/10/14 09:04:54;;;;;;;;;2.00;2.00;;;;;17.25;100.00;100936.09;5080666;27;45295;-78
2022/10/14 09:07:20;;;;;;;;;3.00;3.00;;;;;17.23;100.00;100928.25;5080255;27;45345;-77
2022/10/14 09:09:57;;;;;;;;;4.67;4.67;;;;;17.31;100.00;100934.41;5080233;28;45623;-78
2022/10/14 09:12:28;;;;;;;;;4.33;4.00;;;;;17.38;100.00;100945.94;5080839;28;45418;-78
2022/10/14 09:15:11;;;;;;;;;4.00;3.00;;;;;17.40;100.00;100938.50;5090417;27;45682;-77
2022/10/14 09:18:02;;;;;;;;;4.00;3.00;;;;;17.41;100.00;100938.31;5077582;28;45294;-78
2022/10/14 09:20:27;;;;;;;;;5.00;4.00;;;;;17.41;100.00;100932.94;5080365;27;45343;-77
2022/10/14 09:23:15;;;;;;;;;3.33;3.33;;;;;17.52;100.00;100939.47;5079845;28;45436;-77
2022/10/14 09:25:57;;;;;;;;;5.00;5.00;;;;;17.54;100.00;100923.16;5082215;28;45611;-79
2022/10/14 09:28:35;;;;;;;;;5.33;5.00;;;;;17.58;100.00;100926.22;5080799;27;45452;-77
2022/10/14 09:31:00;;;;;;;;;5.00;3.00;;;;;17.59;99.83;100930.53;5067250;28;46527;-78
2022/10/14 09:33:28;;;;;;;;;5.00;5.00;;;;;17.62;100.00;100938.16;5079888;27;45265;-77
2022/10/14 09:35:54;;;;;;;;;6.33;6.00;;;;;17.65;100.00;100935.03;5074651;28;45390;-77
2022/10/14 09:38:20;;;;;;;;;4.67;3.00;;;;;17.70;100.00;100932.53;5122594;27;46505;-78
2022/10/14 09:40:52;;;;;;;;;4.00;4.00;;;;;17.72;100.00;100914.31;5080282;28;45338;-77
2022/10/14 09:43:20;;;;;;;;;4.33;4.33;;;;;17.80;100.00;100924.00;5079867;27;45276;-78
2022/10/14 09:45:50;;;;;;;;;4.00;4.00;;;;;17.81;99.79;100920.28;5081116;27;45301;-77
2022/10/14 09:48:37;;;;;;;;;4.33;4.00;;;;;17.67;99.72;100898.88;5080065;27;45245;-76
2022/10/14 09:51:18;;;;;;;;;3.67;3.67;;;;;17.77;99.47;100914.50;5079288;27;47100;-76
2022/10/14 09:53:47;;;;;;;;;4.00;4.00;;;;;17.81;99.17;100924.81;5080023;27;45342;-76
2022/10/14 09:56:13;;;;;;;;;5.00;4.33;;;;;17.78;99.34;100907.28;5082349;27;45284;-78
2022/10/14 09:58:52;;;;;;;;;4.00;4.00;;;;;17.73;99.49;100915.97;5079907;27;45518;-78
2022/10/14 10:01:21;;;;;;;;;3.33;3.33;;;;;17.76;99.67;100926.31;5065998;28;45244;-77
2022/10/14 10:03:48;;;;;;;;;8.00;7.00;;;;;17.74;98.69;100925.69;5079965;27;45437;-75
2022/10/14 10:06:17;;;;;;;;;6.00;5.00;;;;;17.70;99.01;100919.09;5083138;27;45496;-77
2022/10/14 10:08:52;;;;;;;;;6.67;6.67;;;;;17.73;99.10;100926.75;5081225;28;45335;-76
2022/10/14 10:11:36;;;;;;;;;6.33;6.33;;;;;17.69;99.00;100913.94;5080157;28;46059;-77
2022/10/14 10:14:29;;;;;;;;;6.33;6.33;;;;;17.70;99.00;100920.97;5079618;27;45370;-76
2022/10/14 10:17:07;;;;;;;;;9.00;8.00;;;;;17.78;98.76;100928.78;5095254;27;45433;-76
2022/10/14 10:20:01;;;;;;;;;8.00;8.00;;;;;17.77;98.48;100922.56;5066882;28;46450;-78
2022/10/14 10:22:32;;;;;;;;;7.00;7.00;;;;;17.73;98.63;100915.97;5076936;28;46290;-78
2022/10/14 10:25:01;;;;;;;;;11.00;9.33;;;;;17.76;98.52;100925.47;5078245;28;45377;-78
2022/10/14 10:27:30;;;;;;;;;8.33;8.33;;;;;17.77;98.51;100921.72;5094882;27;45800;-78
2022/10/14 10:29:55;;;;;;;;;7.00;7.00;;;;;17.71;99.00;100910.00;5079391;27;45283;-78
2022/10/14 10:32:39;;;;;;;;;7.00;7.00;;;;;17.84;98.52;100921.69;5078964;28;46183;-78
2022/10/14 10:35:10;;;;;;;;;7.67;7.67;;;;;17.86;98.74;100923.13;5079480;27;45325;-77
2022/10/14 10:37:49;;;;;;;;;6.67;6.67;;;;;17.89;98.25;100925.38;5077244;27;45289;-77
2022/10/14 10:40:29;;;;;;;;;6.33;6.33;;;;;17.84;98.66;100911.75;5116689;27;45535;-78
2022/10/14 10:43:20;;;;;;;;;6.67;6.00;;;;;17.92;98.61;100903.44;5078465;27;45930;-78
2022/10/14 10:46:19;;;;;;;;;8.00;6.00;;;;;18.08;98.32;100908.47;5073690;27;45460;-79
2022/10/14 10:48:52;;;;;;;;;5.33;4.67;;;;;18.13;98.20;100914.03;5078862;28;45421;-78
2022/10/14 10:51:29;;;;;;;;;4.00;4.00;;;;;18.03;97.43;100887.63;5102566;27;47098;-78
2022/10/14 10:54:25;;;;;;;;;4.00;4.00;;;;;18.11;97.17;100886.56;5070323;28;45385;-78
2022/10/14 10:56:58;;;;;;;;;2.67;2.33;;;;;18.18;97.16;100879.25;5070005;27;45366;-76
2022/10/14 10:59:42;;;;;;;;;4.33;4.00;;;;;18.29;96.62;100889.25;5079868;27;45258;-75
2022/10/14 11:02:36;;;;;;;;;3.00;3.00;;;;;18.35;97.05;100884.03;5080626;27;45578;-76
2022/10/14 11:05:04;;;;;;;;;4.00;4.00;;;;;18.40;97.01;100881.50;5074271;27;45582;-76
2022/10/14 11:13:51;;;;;;;;;3.00;3.00;;;;;18.47;94.67;100858.00;5078030;28;45322;-78
2022/10/14 11:16:26;;;;;;;;;4.00;2.67;;;;;18.38;94.70;100854.81;5087828;27;45412;-78
2022/10/14 11:19:14;;;;;;;;;3.00;3.00;;;;;18.27;93.63;100848.31;5071251;27;45493;-78
2022/10/14 11:22:09;;;;;;;;;3.00;3.00;;;;;18.31;93.44;100856.75;5093846;27;45325;-78
2022/10/14 11:24:38;;;;;;;;;1.67;0.33;;;;;18.29;93.65;100848.91;5078617;27;46017;-77
2022/10/14 11:27:20;;;;;;;;;2.00;2.00;;;;;18.24;93.47;100843.38;5078276;27;46070;-77
2022/10/14 11:30:12;;;;;;;;;2.33;1.00;;;;;18.27;93.55;100852.88;5089178;27;45211;-76
2022/10/14 11:33:13;;;;;;;;;2.00;2.00;;;;;18.25;93.48;100849.56;5078420;27;45393;-76
2022/10/14 11:35:56;;;;;;;;;2.00;2.00;;;;;18.25;93.75;100838.81;5078847;27;45297;-78